createdAt,value
2023-12-16T00:02:09.140Z,31.95
2023-12-16T00:04:37.746Z,31.00
2023-12-16T00:07:05.186Z,31.02
2023-12-16T00:09:32.503Z,25.25
2023-12-16T00:12:00.080Z,24.67
2023-12-16T00:14:27.669Z,26.48
2023-12-16T00:16:55.017Z,35.78
2023-12-16T00:19:22.417Z,36.25
2023-12-16T00:21:49.663Z,29.40
2023-12-16T00:24:16.741Z,32.47
2023-12-16T00:26:43.963Z,26.13
2023-12-16T00:29:11.234Z,27.85
2023-12-16T00:31:38.385Z,34.08
2023-12-16T00:34:05.578Z,29.30
2023-12-16T00:36:32.775Z,40.63
2023-12-16T00:38:59.967Z,37.58
2023-12-16T00:41:27.043Z,40.33
2023-12-16T00:43:54.084Z,33.38
2023-12-16T00:46:21.124Z,36.50
2023-12-16T00:48:48.367Z,29.05
2023-12-16T00:51:15.482Z,26.92
2023-12-16T00:53:42.510Z,33.42
2023-12-16T00:56:10.536Z,29.85
2023-12-16T00:58:37.655Z,38.22
2023-12-16T01:01:04.961Z,33.00
2023-12-16T01:03:32.803Z,33.78
2023-12-16T01:06:00.004Z,34.47
2023-12-16T01:08:27.072Z,32.05
2023-12-16T01:10:54.312Z,36.95
2023-12-16T01:13:21.630Z,30.35
2023-12-16T01:15:48.846Z,32.97
2023-12-16T01:18:17.377Z,29.13
2023-12-16T01:20:44.772Z,37.47
2023-12-16T01:23:12.029Z,32.42
2023-12-16T01:25:39.160Z,28.73
2023-12-16T01:28:06.605Z,35.30
2023-12-16T01:30:34.264Z,27.50
2023-12-16T01:33:02.029Z,28.08
2023-12-16T01:35:29.036Z,36.50
2023-12-16T01:37:56.131Z,27.13
2023-12-16T01:40:23.288Z,31.33
2023-12-16T01:42:50.522Z,30.20
2023-12-16T01:45:20.077Z,28.00
2023-12-16T01:47:47.811Z,29.30
2023-12-16T01:50:15.762Z,26.08
2023-12-16T01:52:43.767Z,32.30
2023-12-16T01:55:15.133Z,31.85
2023-12-16T01:57:43.253Z,30.55
2023-12-16T02:00:21.689Z,32.65
2023-12-16T02:02:50.153Z,28.77
2023-12-16T02:05:17.589Z,26.80
2023-12-16T02:07:45.123Z,31.02
2023-12-16T02:10:12.743Z,30.58
2023-12-16T02:12:40.019Z,29.80
2023-12-16T02:15:07.912Z,25.52
2023-12-16T02:17:34.950Z,23.52
2023-12-16T02:20:02.269Z,30.23
2023-12-16T02:22:29.533Z,24.83
2023-12-16T02:24:57.139Z,29.20
2023-12-16T02:27:24.265Z,25.92
2023-12-16T02:29:51.360Z,20.92
2023-12-16T02:32:19.150Z,21.25
2023-12-16T02:34:46.653Z,26.75
2023-12-16T02:37:13.862Z,27.67
2023-12-16T02:39:40.992Z,29.02
2023-12-16T02:42:08.247Z,34.95
2023-12-16T02:44:35.314Z,27.73
2023-12-16T02:47:02.627Z,22.92
2023-12-16T02:49:30.084Z,25.45
2023-12-16T02:51:59.672Z,32.90
2023-12-16T02:54:28.936Z,26.40
2023-12-16T02:56:56.065Z,27.08
2023-12-16T02:59:23.410Z,28.38
2023-12-16T03:01:50.993Z,24.15
2023-12-16T03:04:18.548Z,24.38
2023-12-16T03:06:46.900Z,24.80
2023-12-16T03:09:14.004Z,26.00
2023-12-16T03:11:41.282Z,24.70
2023-12-16T03:14:08.379Z,25.52
2023-12-16T03:16:35.823Z,28.80
2023-12-16T03:19:03.202Z,26.90
2023-12-16T03:21:31.778Z,32.92
2023-12-16T03:24:00.127Z,30.70
2023-12-16T03:26:27.411Z,28.38
2023-12-16T03:28:54.625Z,25.90
2023-12-16T03:31:21.839Z,23.27
2023-12-16T03:33:49.156Z,23.45
2023-12-16T03:36:16.368Z,25.73
2023-12-16T03:38:44.010Z,29.60
2023-12-16T03:41:11.151Z,27.85
2023-12-16T03:43:38.255Z,27.15
2023-12-16T03:46:05.957Z,30.40
2023-12-16T03:48:33.202Z,30.83
2023-12-16T03:51:00.268Z,28.38
2023-12-16T03:53:27.291Z,29.00
2023-12-16T03:55:54.590Z,36.03
2023-12-16T03:58:21.743Z,31.20
2023-12-16T04:00:48.849Z,35.50
2023-12-16T04:03:16.396Z,31.60
2023-12-16T04:05:44.195Z,34.90
2023-12-16T04:08:11.898Z,38.10
2023-12-16T04:10:39.940Z,32.05
2023-12-16T04:13:07.056Z,29.83
2023-12-16T04:15:34.248Z,41.78
2023-12-16T04:18:01.435Z,28.88
2023-12-16T04:20:29.891Z,33.97
2023-12-16T04:22:57.023Z,31.40
2023-12-16T04:25:24.188Z,36.10
2023-12-16T04:27:51.304Z,38.78
2023-12-16T04:30:18.625Z,32.85
2023-12-16T04:32:46.314Z,41.17
2023-12-16T04:35:13.621Z,41.35
2023-12-16T04:37:41.406Z,38.95
2023-12-16T04:40:10.050Z,35.03
2023-12-16T04:42:37.159Z,34.70
2023-12-16T04:45:05.179Z,30.77
2023-12-16T04:47:32.185Z,40.63
2023-12-16T04:49:59.966Z,31.20
2023-12-16T04:52:27.395Z,35.40
2023-12-16T04:54:54.804Z,32.80
2023-12-16T04:57:21.816Z,35.40
2023-12-16T04:59:48.864Z,38.20
2023-12-16T05:02:15.919Z,37.47
2023-12-16T05:04:42.973Z,36.85
2023-12-16T05:07:10.551Z,32.25
2023-12-16T05:09:37.662Z,33.53
2023-12-16T05:12:05.723Z,40.55
2023-12-16T05:14:33.156Z,38.63
2023-12-16T05:17:01.930Z,36.90
2023-12-16T05:19:29.157Z,38.92
2023-12-16T05:21:56.449Z,36.88
2023-12-16T05:24:23.704Z,35.47
2023-12-16T05:26:51.588Z,35.20
2023-12-16T05:29:19.082Z,38.63
2023-12-16T05:31:46.517Z,37.97
2023-12-16T05:34:13.728Z,35.33
2023-12-16T05:36:40.928Z,28.00
2023-12-16T05:39:08.501Z,39.55
2023-12-16T05:41:36.404Z,32.22
2023-12-16T05:44:03.963Z,30.42
2023-12-16T05:46:31.323Z,28.70
2023-12-16T05:48:58.550Z,34.80
2023-12-16T05:51:25.652Z,30.98
2023-12-16T05:53:52.685Z,30.92
2023-12-16T05:56:19.689Z,35.47
2023-12-16T05:58:47.028Z,29.95
2023-12-16T06:01:20.871Z,30.10
2023-12-16T06:03:48.638Z,28.67
2023-12-16T06:06:16.848Z,25.83
2023-12-16T06:08:45.019Z,31.88
2023-12-16T06:11:15.465Z,32.38
2023-12-16T06:13:42.840Z,29.42
2023-12-16T06:16:17.006Z,29.20
2023-12-16T06:18:49.326Z,26.25
2023-12-16T06:21:17.576Z,31.63
2023-12-16T06:23:44.726Z,30.05
2023-12-16T06:26:11.868Z,36.10
2023-12-16T06:28:39.169Z,30.13
2023-12-16T06:31:06.628Z,26.42
2023-12-16T06:33:33.830Z,28.05
2023-12-16T06:36:01.026Z,23.27
2023-12-16T06:38:28.295Z,28.05
2023-12-16T06:40:55.719Z,24.98
2023-12-16T06:43:22.781Z,30.85
2023-12-16T06:45:49.952Z,30.85
2023-12-16T06:48:17.181Z,28.33
2023-12-16T06:50:44.279Z,21.73
2023-12-16T06:53:11.478Z,24.52
2023-12-16T06:55:38.774Z,22.58
2023-12-16T06:58:06.136Z,24.45
2023-12-16T07:00:33.282Z,28.45
2023-12-16T07:03:01.364Z,25.80
2023-12-16T07:05:29.416Z,22.27
2023-12-16T07:07:56.679Z,28.35
2023-12-16T07:10:24.168Z,27.52
2023-12-16T07:12:51.428Z,22.38
2023-12-16T07:15:21.236Z,35.42
2023-12-16T07:17:48.350Z,25.95
2023-12-16T07:20:15.584Z,28.10
2023-12-16T07:22:43.246Z,25.65
2023-12-16T07:25:10.329Z,21.17
2023-12-16T07:27:37.925Z,30.55
2023-12-16T07:30:06.290Z,19.70
2023-12-16T07:32:33.659Z,24.95
2023-12-16T07:35:02.000Z,25.88
2023-12-16T07:37:29.172Z,26.40
2023-12-16T07:39:56.708Z,21.05
2023-12-16T07:42:23.955Z,24.23
2023-12-16T07:44:51.059Z,21.20
2023-12-16T07:47:18.776Z,21.20
2023-12-16T07:49:45.983Z,21.30
2023-12-16T07:52:13.309Z,24.48
2023-12-16T07:54:40.413Z,26.42
2023-12-16T07:57:07.729Z,18.00
2023-12-16T07:59:35.004Z,17.95
2023-12-16T08:02:06.501Z,18.42
2023-12-16T08:04:33.805Z,22.98
2023-12-16T08:07:01.035Z,19.38
2023-12-16T08:09:28.338Z,18.70
2023-12-16T08:11:59.171Z,26.63
2023-12-16T08:14:27.138Z,22.30
2023-12-16T08:16:54.289Z,16.02
2023-12-16T08:19:21.619Z,20.98
2023-12-16T08:21:48.845Z,20.48
2023-12-16T08:24:16.309Z,20.88
2023-12-16T08:26:43.511Z,21.67
2023-12-16T08:29:10.641Z,22.15
2023-12-16T08:31:37.764Z,23.85
2023-12-16T08:34:04.920Z,16.85
2023-12-16T08:36:32.298Z,18.20
2023-12-16T08:38:59.272Z,19.75
2023-12-16T08:41:28.162Z,18.67
2023-12-16T08:43:55.390Z,27.02
2023-12-16T08:46:25.009Z,19.48
2023-12-16T08:48:54.761Z,13.52
2023-12-16T08:51:26.853Z,20.80
2023-12-16T08:53:54.414Z,17.23
2023-12-16T08:56:21.560Z,16.23
2023-12-16T08:58:48.633Z,17.92
2023-12-16T09:01:15.784Z,15.93
2023-12-16T09:03:44.626Z,20.23
2023-12-16T09:06:12.178Z,16.67
2023-12-16T09:08:39.893Z,14.35
2023-12-16T09:11:07.142Z,16.63
2023-12-16T09:13:34.574Z,14.75
2023-12-16T09:16:01.892Z,15.23
2023-12-16T09:18:29.272Z,15.75
2023-12-16T09:20:57.084Z,16.13
2023-12-16T09:23:24.256Z,18.27
2023-12-16T09:25:51.472Z,14.82
2023-12-16T09:28:18.638Z,15.25
2023-12-16T09:30:45.862Z,16.50
2023-12-16T09:33:13.393Z,16.95
2023-12-16T09:35:40.722Z,17.13
2023-12-16T09:38:07.787Z,14.52
2023-12-16T09:40:35.013Z,12.38
2023-12-16T09:43:18.021Z,15.90
2023-12-16T09:45:48.483Z,18.88
2023-12-16T09:48:19.186Z,17.77
2023-12-16T09:50:46.796Z,18.20
2023-12-16T09:53:14.123Z,13.75
2023-12-16T09:55:42.456Z,13.35
2023-12-16T09:58:16.350Z,15.20
2023-12-16T10:00:48.167Z,14.35
2023-12-16T10:03:18.665Z,14.90
2023-12-16T10:05:47.690Z,14.48
2023-12-16T10:08:15.037Z,12.27
2023-12-16T10:10:51.104Z,12.95
2023-12-16T10:13:22.045Z,10.48
2023-12-16T10:15:49.069Z,14.23
2023-12-16T10:18:16.249Z,9.80
2023-12-16T10:20:44.491Z,15.90
2023-12-16T10:23:14.072Z,13.88
2023-12-16T10:25:44.613Z,15.45
2023-12-16T10:28:11.942Z,11.43
2023-12-16T10:30:39.360Z,13.57
2023-12-16T10:33:10.664Z,15.43
2023-12-16T10:35:38.995Z,16.63
2023-12-16T10:38:08.008Z,13.55
2023-12-16T10:40:38.403Z,11.85
2023-12-16T10:43:06.678Z,13.25
2023-12-16T10:45:33.985Z,12.73
2023-12-16T10:48:06.454Z,13.00
2023-12-16T10:50:37.277Z,8.32
2023-12-16T10:53:07.584Z,17.27
2023-12-16T10:55:45.462Z,11.07
2023-12-16T10:58:22.821Z,10.57
2023-12-16T11:00:53.361Z,14.25
2023-12-16T11:03:30.026Z,17.63
2023-12-16T11:06:14.836Z,13.63
2023-12-16T11:08:42.529Z,10.35
2023-12-16T11:11:10.233Z,10.73
2023-12-16T11:13:38.210Z,11.25
2023-12-16T11:16:19.908Z,8.98
2023-12-16T11:18:50.546Z,14.02
2023-12-16T11:21:23.826Z,9.77
2023-12-16T11:23:51.076Z,11.50
2023-12-16T11:26:18.498Z,12.90
2023-12-16T11:28:45.754Z,11.05
2023-12-16T11:31:16.649Z,15.48
2023-12-16T11:33:45.711Z,9.38
2023-12-16T11:36:13.889Z,10.23
2023-12-16T11:38:50.221Z,16.35
2023-12-16T11:41:36.216Z,16.35
2023-12-16T11:44:03.527Z,11.38
2023-12-16T11:46:43.824Z,11.02
2023-12-16T11:49:16.956Z,14.13
2023-12-16T11:51:44.725Z,13.05
2023-12-16T11:54:15.464Z,15.15
2023-12-16T11:56:43.259Z,15.52
2023-12-16T11:59:10.647Z,16.13
2023-12-16T12:01:38.199Z,15.88
2023-12-16T12:04:06.178Z,13.80
2023-12-16T12:06:33.805Z,10.20
2023-12-16T12:09:01.338Z,16.58
2023-12-16T12:11:28.719Z,9.38
2023-12-16T12:13:57.408Z,16.40
2023-12-16T12:16:29.238Z,12.00
2023-12-16T12:18:57.735Z,12.27
2023-12-16T12:21:25.333Z,14.15
2023-12-16T12:23:52.461Z,16.88
2023-12-16T12:26:22.735Z,12.00
2023-12-16T12:29:02.533Z,11.32
2023-12-16T12:31:31.661Z,10.73
2023-12-16T12:33:58.995Z,14.20
2023-12-16T12:36:26.684Z,15.20
2023-12-16T12:38:57.599Z,16.42
2023-12-16T12:41:24.823Z,13.10
2023-12-16T12:43:52.278Z,12.82
2023-12-16T12:46:19.607Z,14.05
2023-12-16T12:48:55.786Z,11.38
2023-12-16T12:51:23.614Z,9.55
2023-12-16T12:54:02.473Z,11.27
2023-12-16T12:56:30.538Z,18.65
2023-12-16T12:58:59.307Z,15.77
2023-12-16T13:01:26.658Z,13.23
2023-12-16T13:03:55.303Z,13.23
2023-12-16T13:06:22.559Z,17.58
2023-12-16T13:08:50.673Z,16.88
2023-12-16T13:11:17.881Z,15.55
2023-12-16T13:13:44.910Z,9.05
2023-12-16T13:16:14.680Z,13.30
2023-12-16T13:18:44.123Z,12.93
2023-12-16T13:21:12.317Z,12.65
2023-12-16T13:23:40.722Z,11.57
2023-12-16T13:26:13.513Z,12.45
2023-12-16T13:28:42.364Z,15.38
2023-12-16T13:31:10.346Z,17.85
2023-12-16T13:33:37.639Z,13.20
2023-12-16T13:36:32.442Z,11.68
2023-12-16T13:38:52.642Z,10.65
2023-12-16T13:41:19.846Z,10.98
2023-12-16T13:43:48.542Z,12.20
2023-12-16T13:46:15.786Z,10.52
2023-12-16T13:48:43.737Z,12.77
2023-12-16T13:51:10.958Z,13.40
2023-12-16T13:53:38.183Z,15.80
2023-12-16T13:56:06.222Z,13.18
2023-12-16T13:58:33.434Z,11.10
2023-12-16T14:01:00.544Z,18.67
2023-12-16T14:03:29.033Z,10.70
2023-12-16T14:05:56.211Z,13.05
2023-12-16T14:08:23.564Z,13.55
2023-12-16T14:10:51.628Z,11.73
2023-12-16T14:13:18.875Z,13.18
2023-12-16T14:15:46.079Z,14.02
2023-12-16T14:18:14.720Z,15.45
2023-12-16T14:20:42.044Z,13.60
2023-12-16T14:23:09.428Z,19.05
2023-12-16T14:25:36.683Z,9.00
2023-12-16T14:28:03.981Z,10.15
2023-12-16T14:30:31.194Z,9.68
2023-12-16T14:32:59.458Z,16.20
2023-12-16T14:35:27.116Z,12.73
2023-12-16T14:37:54.890Z,19.40
2023-12-16T14:40:22.127Z,8.85
2023-12-16T14:42:49.307Z,14.05
2023-12-16T14:45:17.581Z,15.75
2023-12-16T14:47:44.769Z,14.43
2023-12-16T14:50:12.725Z,18.83
2023-12-16T14:52:40.252Z,12.75
2023-12-16T14:55:08.429Z,21.70
2023-12-16T14:57:36.800Z,15.35
2023-12-16T15:00:05.439Z,14.90
2023-12-16T15:02:33.168Z,14.10
2023-12-16T15:05:01.422Z,16.92
2023-12-16T15:07:28.978Z,19.02
2023-12-16T15:09:56.496Z,13.90
2023-12-16T15:12:24.120Z,11.65
2023-12-16T15:14:51.563Z,13.25
2023-12-16T15:17:19.466Z,19.90
2023-12-16T15:19:48.250Z,19.23
2023-12-16T15:22:15.373Z,13.60
2023-12-16T15:24:42.734Z,14.55
2023-12-16T15:27:10.538Z,12.45
2023-12-16T15:29:37.983Z,11.77
2023-12-16T15:32:06.104Z,13.13
2023-12-16T15:34:33.624Z,15.48
2023-12-16T15:37:08.534Z,13.48
2023-12-16T15:39:45.412Z,12.90
2023-12-16T15:42:17.194Z,17.85
2023-12-16T15:44:48.569Z,14.05
2023-12-16T15:47:16.189Z,16.17
2023-12-16T15:49:43.688Z,9.15
2023-12-16T15:52:10.923Z,9.80
2023-12-16T15:54:38.214Z,12.40
2023-12-16T15:57:05.812Z,18.40
2023-12-16T15:59:34.639Z,13.75
2023-12-16T16:02:02.188Z,21.48
2023-12-16T16:04:29.573Z,14.85
2023-12-16T16:06:56.730Z,14.20
2023-12-16T16:09:24.297Z,16.15
2023-12-16T16:11:51.830Z,14.43
2023-12-16T16:14:19.091Z,16.80
2023-12-16T16:16:46.355Z,11.52
2023-12-16T16:19:13.846Z,11.98
2023-12-16T16:21:41.088Z,12.38
2023-12-16T16:24:08.296Z,17.65
2023-12-16T16:26:35.493Z,16.52
2023-12-16T16:29:04.170Z,14.95
2023-12-16T16:31:32.183Z,26.95
2023-12-16T16:34:02.325Z,14.15
2023-12-16T16:36:30.930Z,15.02
2023-12-16T16:39:01.551Z,11.25
2023-12-16T16:41:28.851Z,15.15
2023-12-16T16:43:58.571Z,11.02
2023-12-16T16:46:26.034Z,13.13
2023-12-16T16:48:53.607Z,18.48
2023-12-16T16:51:21.245Z,22.20
2023-12-16T16:53:49.692Z,19.63
2023-12-16T16:56:17.049Z,13.13
2023-12-16T16:58:44.174Z,14.15
2023-12-16T17:01:11.530Z,13.98
2023-12-16T17:03:39.123Z,17.25
2023-12-16T17:06:06.757Z,19.05
2023-12-16T17:08:34.343Z,23.92
2023-12-16T17:11:01.697Z,12.77
2023-12-16T17:13:28.977Z,19.60
2023-12-16T17:15:56.170Z,17.70
2023-12-16T17:18:25.663Z,16.75
2023-12-16T17:20:53.207Z,17.00
2023-12-16T17:23:20.751Z,15.48
2023-12-16T17:25:48.010Z,23.08
2023-12-16T17:28:15.253Z,15.13
2023-12-16T17:30:43.663Z,17.20
2023-12-16T17:33:11.356Z,20.38
2023-12-16T17:35:40.604Z,22.15
2023-12-16T17:38:07.812Z,19.27
2023-12-16T17:40:34.786Z,21.00
2023-12-16T17:43:02.001Z,16.75
2023-12-16T17:45:29.797Z,14.52
2023-12-16T17:47:57.034Z,19.80
2023-12-16T17:50:24.281Z,16.67
2023-12-16T17:52:51.421Z,16.13
2023-12-16T17:55:18.488Z,14.05
2023-12-16T17:57:48.390Z,14.50
2023-12-16T18:00:16.478Z,12.85
2023-12-16T18:02:43.846Z,18.73
2023-12-16T18:05:12.078Z,13.18
2023-12-16T18:07:39.767Z,23.42
2023-12-16T18:10:07.881Z,10.75
2023-12-16T18:12:34.988Z,15.15
2023-12-16T18:15:02.492Z,14.88
2023-12-16T18:17:29.882Z,17.33
2023-12-16T18:19:57.047Z,19.08
2023-12-16T18:22:24.593Z,23.70
2023-12-16T18:24:51.978Z,18.65
2023-12-16T18:27:19.133Z,16.60
2023-12-16T18:29:46.518Z,17.20
2023-12-16T18:32:14.693Z,21.50
2023-12-16T18:34:42.482Z,14.90
2023-12-16T18:37:09.537Z,14.48
2023-12-16T18:39:37.192Z,13.63
2023-12-16T18:42:05.160Z,21.20
2023-12-16T18:44:32.288Z,19.20
2023-12-16T18:46:59.352Z,19.52
2023-12-16T18:49:26.744Z,22.10
2023-12-16T18:51:53.937Z,14.73
2023-12-16T18:54:21.217Z,21.15
2023-12-16T18:56:48.331Z,18.27
2023-12-16T18:59:15.480Z,16.83
2023-12-16T19:01:42.831Z,27.63
2023-12-16T19:04:09.999Z,21.30
2023-12-16T19:06:37.373Z,19.35
2023-12-16T19:09:04.952Z,20.48
2023-12-16T19:11:32.077Z,29.00
2023-12-16T19:13:59.167Z,15.43
2023-12-16T19:16:26.388Z,19.67
2023-12-16T19:18:54.280Z,21.38
2023-12-16T19:21:21.575Z,18.05
2023-12-16T19:23:48.757Z,26.48
2023-12-16T19:26:16.098Z,20.50
2023-12-16T19:28:43.704Z,19.17
2023-12-16T19:31:11.023Z,20.65
2023-12-16T19:33:40.115Z,16.08
2023-12-16T19:36:08.137Z,21.02
2023-12-16T19:38:35.499Z,22.88
2023-12-16T19:41:02.782Z,15.45
2023-12-16T19:43:29.950Z,20.80
2023-12-16T19:46:01.179Z,20.15
2023-12-16T19:48:29.768Z,17.17
2023-12-16T19:50:57.688Z,15.85
2023-12-16T19:53:25.481Z,14.80
2023-12-16T19:55:53.008Z,21.17
2023-12-16T19:58:21.114Z,20.20
2023-12-16T20:00:48.812Z,17.77
2023-12-16T20:03:16.605Z,18.55
2023-12-16T20:05:45.742Z,16.95
2023-12-16T20:08:13.136Z,16.30
2023-12-16T20:10:44.253Z,19.08
2023-12-16T20:13:12.237Z,11.88
2023-12-16T20:15:39.516Z,14.13
2023-12-16T20:18:07.068Z,17.20
2023-12-16T20:20:34.383Z,21.63
2023-12-16T20:23:02.990Z,17.50
2023-12-16T20:25:30.110Z,16.83
2023-12-16T20:27:57.687Z,16.77
2023-12-16T20:30:25.440Z,17.00
2023-12-16T20:32:52.801Z,16.98
2023-12-16T20:35:20.110Z,13.98
2023-12-16T20:37:57.179Z,13.93
2023-12-16T20:40:31.815Z,21.48
2023-12-16T20:43:01.131Z,12.65
2023-12-16T20:45:29.423Z,18.08
2023-12-16T20:47:58.472Z,19.85
2023-12-16T20:50:28.305Z,17.65
2023-12-16T20:52:57.944Z,19.80
2023-12-16T20:55:25.020Z,13.73
2023-12-16T20:57:54.783Z,17.63
2023-12-16T21:00:26.146Z,14.35
2023-12-16T21:02:57.233Z,19.42
2023-12-16T21:05:24.808Z,20.23
2023-12-16T21:07:51.979Z,17.27
2023-12-16T21:10:19.508Z,17.13
2023-12-16T21:12:46.702Z,19.25
2023-12-16T21:15:14.105Z,19.48
2023-12-16T21:17:41.713Z,17.45
2023-12-16T21:20:09.910Z,18.10
2023-12-16T21:22:37.493Z,18.35
2023-12-16T21:25:05.992Z,17.67
2023-12-16T21:27:33.256Z,19.02
2023-12-16T21:30:00.828Z,18.08
2023-12-16T21:32:28.212Z,18.13
2023-12-16T21:34:55.838Z,17.73
2023-12-16T21:37:23.034Z,21.67
2023-12-16T21:39:50.184Z,18.67
2023-12-16T21:42:17.340Z,15.13
2023-12-16T21:44:44.593Z,22.23
2023-12-16T21:47:11.823Z,29.60
2023-12-16T21:49:39.007Z,24.65
2023-12-16T21:52:06.656Z,16.58
2023-12-16T21:54:34.264Z,18.08
2023-12-16T21:57:01.506Z,20.92
2023-12-16T21:59:28.762Z,19.42
2023-12-16T22:01:55.815Z,22.70
2023-12-16T22:04:22.947Z,22.73
2023-12-16T22:06:49.957Z,22.70
2023-12-16T22:09:17.052Z,20.17
2023-12-16T22:11:44.937Z,23.20
2023-12-16T22:14:11.959Z,24.23
2023-12-16T22:16:39.554Z,16.58
2023-12-16T22:19:09.164Z,23.33
2023-12-16T22:21:36.190Z,23.50
2023-12-16T22:24:03.638Z,24.23
2023-12-16T22:26:30.741Z,19.73
2023-12-16T22:28:57.906Z,19.58
2023-12-16T22:31:25.072Z,20.77
2023-12-16T22:33:52.304Z,23.75
2023-12-16T22:36:19.541Z,23.98
2023-12-16T22:38:46.604Z,22.10
2023-12-16T22:41:13.831Z,23.30
2023-12-16T22:43:41.138Z,26.52
2023-12-16T22:46:08.239Z,23.45
2023-12-16T22:48:35.539Z,23.73
2023-12-16T22:51:02.826Z,22.45
2023-12-16T22:53:30.003Z,21.55
2023-12-16T22:55:57.101Z,22.00
2023-12-16T22:58:31.380Z,20.77
2023-12-16T23:01:05.925Z,22.95
2023-12-16T23:03:33.201Z,25.35
2023-12-16T23:06:00.345Z,23.35
2023-12-16T23:08:27.769Z,25.58
2023-12-16T23:10:54.794Z,24.50
2023-12-16T23:13:22.597Z,22.15
2023-12-16T23:15:49.714Z,22.25
2023-12-16T23:18:17.129Z,23.90
2023-12-16T23:20:44.432Z,19.88
2023-12-16T23:23:11.536Z,26.60
2023-12-16T23:25:38.841Z,27.77
2023-12-16T23:28:05.916Z,24.48
2023-12-16T23:30:33.222Z,24.00
2023-12-16T23:33:00.571Z,22.23
2023-12-16T23:35:28.614Z,26.65
2023-12-16T23:37:55.954Z,22.40
2023-12-16T23:40:23.004Z,24.00
2023-12-16T23:42:50.207Z,27.33
2023-12-16T23:45:17.574Z,26.27
2023-12-16T23:47:45.406Z,24.27
2023-12-16T23:50:12.896Z,25.25
2023-12-16T23:52:40.127Z,25.73
2023-12-16T23:55:08.201Z,25.98
2023-12-16T23:57:37.740Z,27.92
